Time;durP1;ratioP1;P1;durP2;ratioP2;P2;SDS_P1;SDS_P2;PMS_P1;PMS_P2;Temp;Humidity;BMP_temperature;BMP_pressure;BME280_temperature;BME280_humidity;BME280_pressure;Samples;Min_cycle;Max_cycle;Signal;HPM_P1;HPM_P2
2023/10/05 00:02:05;;;;;;;5.72;2.10;;;;;;;24.47;37.38;100684.78;4457114;32;33350;-67
2023/10/05 00:04:42;;;;;;;4.55;1.85;;;;;;;24.46;37.22;100683.12;4446269;32;33055;-67
2023/10/05 00:07:26;;;;;;;4.45;1.92;;;;;;;24.48;36.95;100682.88;4471217;32;34824;-69
2023/10/05 00:09:57;;;;;;;5.10;1.92;;;;;;;24.46;37.09;100690.47;4469376;32;32803;-66
2023/10/05 00:12:25;;;;;;;6.53;2.15;;;;;;;24.45;37.20;100694.25;4470386;32;33391;-68
2023/10/05 00:15:14;;;;;;;10.40;2.10;;;;;;;24.44;37.13;100687.97;4483972;32;34358;-66
2023/10/05 00:17:42;;;;;;;4.47;2.10;;;;;;;24.45;36.95;100692.34;4448233;32;34064;-66
2023/10/05 00:20:24;;;;;;;5.65;1.90;;;;;;;24.44;36.98;100696.12;4469767;32;33768;-67
2023/10/05 00:22:53;;;;;;;6.43;2.08;;;;;;;24.43;36.98;100698.03;4458105;32;34163;-66
2023/10/05 00:25:23;;;;;;;5.35;2.15;;;;;;;24.44;36.90;100693.41;4443778;32;33219;-69
2023/10/05 00:27:54;;;;;;;6.03;2.20;;;;;;;24.43;36.82;100698.03;4469860;32;34480;-69
2023/10/05 00:30:23;;;;;;;5.57;2.10;;;;;;;24.43;36.77;100694.44;4470032;32;34669;-69
2023/10/05 00:32:58;;;;;;;4.15;2.10;;;;;;;24.41;36.89;100691.94;4444022;32;33058;-68
2023/10/05 00:35:28;;;;;;;4.62;2.20;;;;;;;24.42;36.81;100696.34;4483684;32;33965;-69
2023/10/05 00:38:09;;;;;;;5.80;2.35;;;;;;;24.41;36.90;100689.19;4457112;32;34464;-67
2023/10/05 00:40:41;;;;;;;4.15;1.80;;;;;;;24.42;37.25;100688.16;4446549;32;32965;-66
2023/10/05 00:43:27;;;;;;;4.72;2.10;;;;;;;24.42;37.21;100692.75;4444913;32;33384;-69
2023/10/05 00:45:57;;;;;;;5.40;2.20;;;;;;;24.41;36.83;100689.19;4469315;32;33802;-69
2023/10/05 00:48:35;;;;;;;3.60;1.73;;;;;;;24.40;37.16;100684.81;4444479;32;33980;-68
2023/10/05 00:51:06;;;;;;;4.53;2.03;;;;;;;24.39;36.96;100682.31;4457186;32;34115;-66
2023/10/05 00:53:35;;;;;;;3.47;1.80;;;;;;;24.38;36.85;100688.78;4469599;32;32832;-68
2023/10/05 00:56:12;;;;;;;4.87;1.90;;;;;;;24.38;36.82;100689.62;4456370;32;34714;-66
2023/10/05 00:58:48;;;;;;;3.92;1.90;;;;;;;24.38;37.07;100680.59;4470382;32;33973;-67
2023/10/05 01:01:22;;;;;;;4.97;2.00;;;;;;;24.38;37.30;100681.44;4469985;32;33556;-65
2023/10/05 01:06:47;;;;;;;6.15;2.50;;;;;;;24.38;37.24;100675.97;4409623;32;33431;-67
2023/10/05 01:14:38;;;;;;;5.03;2.60;;;;;;;24.36;37.16;100667.19;4483170;32;34212;-65
2023/10/05 01:17:06;;;;;;;4.18;2.08;;;;;;;24.38;37.24;100666.97;4468905;32;33738;-66
2023/10/05 01:19:38;;;;;;;5.62;1.98;;;;;;;24.38;37.22;100669.69;4455918;32;32646;-66
2023/10/05 01:22:11;;;;;;;6.12;2.47;;;;;;;24.37;37.20;100663.41;4456144;32;32607;-66
2023/10/05 01:24:39;;;;;;;5.97;2.00;;;;;;;24.38;37.19;100666.97;4469312;32;32805;-67
2023/10/05 01:27:08;;;;;;;4.65;2.10;;;;;;;24.38;37.20;100666.97;4456054;32;33683;-67
2023/10/05 01:29:36;;;;;;;4.72;2.20;;;;;;;24.37;37.19;100660.66;4469480;32;33992;-66
2023/10/05 01:32:04;;;;;;;4.85;2.03;;;;;;;24.37;36.99;100657.94;4457823;32;34652;-70
2023/10/05 01:34:32;;;;;;;4.35;1.90;;;;;;;24.38;37.08;100653.31;4458233;32;33659;-70
2023/10/05 01:37:00;;;;;;;5.07;2.20;;;;;;;24.37;36.86;100654.37;4470988;32;34398;-69
2023/10/05 01:39:27;;;;;;;5.55;2.10;;;;;;;24.36;36.75;100652.69;4470735;32;34513;-70
2023/10/05 01:41:56;;;;;;;3.87;2.00;;;;;;;24.37;37.08;100657.09;4470839;32;33096;-69
2023/10/05 01:44:25;;;;;;;5.20;2.22;;;;;;;24.37;37.29;100643.47;4468077;32;33368;-69
2023/10/05 01:47:14;;;;;;;5.35;2.20;;;;;;;24.36;37.15;100652.69;4469243;32;34324;-68
2023/10/05 01:49:46;;;;;;;4.25;2.08;;;;;;;24.36;36.90;100648.09;4467689;32;33893;-67
2023/10/05 01:52:16;;;;;;;5.28;2.42;;;;;;;24.35;36.87;100638.19;4455051;32;33794;-69
2023/10/05 01:54:44;;;;;;;5.43;2.70;;;;;;;24.35;36.83;100651.00;4469291;32;34295;-70
2023/10/05 01:57:16;;;;;;;4.28;1.90;;;;;;;24.36;37.16;100641.75;4454909;32;34670;-66
2023/10/05 01:59:44;;;;;;;4.25;2.00;;;;;;;24.38;37.33;100645.12;4455557;32;33840;-67
2023/10/05 02:02:15;;;;;;;5.20;1.92;;;;;;;24.38;37.43;100640.53;4442137;32;33974;-67
2023/10/05 02:04:44;;;;;;;4.85;2.22;;;;;;;24.37;37.27;100640.75;4442784;32;33143;-68
2023/10/05 02:07:15;;;;;;;5.25;2.70;;;;;;;24.37;37.18;100644.31;4455186;32;33603;-69
2023/10/05 02:09:43;;;;;;;4.87;2.03;;;;;;;24.35;37.22;100642.81;4442488;32;32936;-68
2023/10/05 02:12:11;;;;;;;4.57;2.17;;;;;;;24.35;37.20;100638.19;4455343;32;33492;-70
2023/10/05 02:14:41;;;;;;;5.82;2.50;;;;;;;24.36;37.11;100631.72;4467979;32;33347;-70
2023/10/05 02:17:10;;;;;;;4.15;1.73;;;;;;;24.35;37.21;100632.75;4454898;32;33994;-69
2023/10/05 02:19:41;;;;;;;4.68;2.22;;;;;;;24.36;36.98;100630.84;4469179;32;34759;-69
2023/10/05 02:22:13;;;;;;;4.43;2.03;;;;;;;24.34;36.97;100630.22;4467661;32;34106;-71
2023/10/05 02:24:42;;;;;;;4.62;2.30;;;;;;;24.34;36.90;100620.16;4468961;32;33025;-68
2023/10/05 02:27:09;;;;;;;8.88;2.03;;;;;;;24.35;36.70;100623.72;4468006;32;34729;-70
2023/10/05 02:29:42;;;;;;;5.25;2.37;;;;;;;24.33;36.84;100615.75;4469011;32;34150;-69
2023/10/05 02:32:11;;;;;;;4.85;2.33;;;;;;;24.34;37.09;100611.13;4455572;32;33900;-71
2023/10/05 02:34:44;;;;;;;4.90;2.08;;;;;;;24.33;37.07;100615.75;4467679;32;33474;-70
2023/10/05 02:37:13;;;;;;;5.43;2.33;;;;;;;24.32;37.11;100611.34;4468664;32;33472;-69
2023/10/05 02:39:41;;;;;;;4.40;2.10;;;;;;;24.32;37.15;100616.78;4468819;32;33869;-68
2023/10/05 02:42:12;;;;;;;4.87;2.22;;;;;;;24.32;37.14;100618.69;4466479;32;33741;-68
2023/10/05 02:44:44;;;;;;;5.78;2.22;;;;;;;24.31;37.14;100615.12;4470611;32;32745;-69
2023/10/05 02:47:14;;;;;;;8.65;2.40;;;;;;;24.29;37.23;100610.91;4457679;32;33845;-68
2023/10/05 02:49:47;;;;;;;;;;;;;;;24.29;37.18;100614.47;4457657;32;33456;-68
2023/10/05 02:52:16;;;;;;;4.72;2.12;;;;;;;24.36;37.05;100609.91;4470272;32;32951;-68
2023/10/05 02:54:47;;;;;;;4.95;2.08;;;;;;;24.28;36.78;100611.97;4470582;32;33498;-68
2023/10/05 02:57:19;;;;;;;4.37;1.92;;;;;;;24.27;36.74;100613.03;4458151;32;33844;-66
2023/10/05 02:59:50;;;;;;;5.47;2.22;;;;;;;24.25;36.96;100629.63;4458498;32;33559;-67
2023/10/05 03:02:18;;;;;;;4.57;1.87;;;;;;;24.24;36.91;100618.91;4484270;32;34456;-66
2023/10/05 03:04:49;;;;;;;4.68;2.22;;;;;;;24.24;36.98;100618.91;4470347;32;32796;-66
2023/10/05 03:07:18;;;;;;;4.32;2.25;;;;;;;24.24;37.11;100618.91;4445967;32;33386;-66
2023/10/05 03:09:47;;;;;;;4.70;2.08;;;;;;;24.24;37.11;100616.19;4470344;32;34005;-67
2023/10/05 03:12:15;;;;;;;3.60;1.90;;;;;;;24.25;37.17;100626.03;4456923;32;32687;-65
2023/10/05 03:14:43;;;;;;;4.03;1.90;;;;;;;24.24;36.93;100622.47;4484231;32;34351;-67
2023/10/05 03:17:18;;;;;;;4.57;2.10;;;;;;;24.23;36.94;100623.53;4470436;32;34739;-66
2023/10/05 03:19:47;;;;;;;4.57;2.35;;;;;;;24.24;36.93;100613.44;4471356;32;33932;-66
2023/10/05 03:22:15;;;;;;;3.35;1.80;;;;;;;24.23;36.93;100615.34;4470407;32;34034;-66
2023/10/05 03:24:47;;;;;;;6.40;2.50;;;;;;;24.23;36.99;100614.50;4469956;32;33210;-66
2023/10/05 03:27:16;;;;;;;5.72;2.50;;;;;;;24.22;37.06;100621.84;4458330;32;34014;-66
2023/10/05 03:29:46;;;;;;;4.75;2.22;;;;;;;24.21;36.92;100616.63;4469636;32;32929;-66
2023/10/05 03:32:19;;;;;;;4.20;2.20;;;;;;;24.21;37.00;100619.34;4469829;32;33742;-67
2023/10/05 03:34:53;;;;;;;4.72;2.33;;;;;;;24.21;37.12;100631.09;4484108;32;33494;-66
2023/10/05 03:37:22;;;;;;;4.75;2.10;;;;;;;24.21;37.08;100625.62;4470547;32;34658;-66
2023/10/05 03:42:21;;;;;;;5.43;2.30;;;;;;;24.22;36.99;100634.66;4484124;32;35156;-66
2023/10/05 03:45:00;;;;;;;4.30;1.77;;;;;;;24.21;37.01;100636.53;4484248;32;33142;-66
2023/10/05 03:47:28;;;;;;;6.40;2.05;;;;;;;24.18;37.05;100637.78;4459198;32;34731;-67
2023/10/05 03:49:57;;;;;;;3.70;2.10;;;;;;;24.18;36.91;100640.53;4456569;32;32989;-66
2023/10/05 03:52:29;;;;;;;6.60;2.30;;;;;;;24.18;36.83;100645.97;4483787;32;33480;-66
2023/10/05 03:55:01;;;;;;;3.92;1.80;;;;;;;24.18;36.94;100635.06;4457414;32;32355;-66
2023/10/05 03:57:31;;;;;;;5.53;2.05;;;;;;;24.19;37.00;100625.00;4484012;32;34668;-66
2023/10/05 03:59:59;;;;;;;4.10;2.17;;;;;;;24.19;37.11;100619.53;4444930;32;33945;-66
2023/10/05 04:02:38;;;;;;;4.47;2.12;;;;;;;24.19;37.05;100614.09;4446182;32;33582;-67
2023/10/05 04:05:10;;;;;;;5.97;2.33;;;;;;;24.19;36.86;100614.09;4484002;32;33562;-66
2023/10/05 04:07:39;;;;;;;4.55;2.40;;;;;;;24.16;36.86;100611.81;4469429;32;33197;-66
2023/10/05 04:10:15;;;;;;;4.20;1.92;;;;;;;24.16;36.71;100618.09;4470292;32;34671;-66
2023/10/05 04:12:43;;;;;;;4.55;1.80;;;;;;;24.16;36.86;100620.81;4469475;32;33892;-66
2023/10/05 04:15:17;;;;;;;4.50;2.10;;;;;;;24.16;36.89;100630.88;4483608;32;33463;-66
2023/10/05 04:17:49;;;;;;;4.85;2.10;;;;;;;24.16;36.78;100631.72;4469487;32;33984;-66
2023/10/05 04:20:27;;;;;;;3.55;2.00;;;;;;;24.16;36.65;100630.88;4457349;32;34713;-66
2023/10/05 04:22:55;;;;;;;3.75;2.08;;;;;;;24.15;36.80;100630.06;4470630;32;34330;-66
2023/10/05 04:25:23;;;;;;;5.53;2.30;;;;;;;24.15;36.58;100640.09;4469502;32;33407;-67
2023/10/05 04:27:52;;;;;;;6.07;2.10;;;;;;;24.15;36.42;100645.56;4469258;32;34705;-67
2023/10/05 04:30:21;;;;;;;3.67;1.85;;;;;;;24.14;36.73;100628.34;4483565;32;33761;-66
2023/10/05 04:32:49;;;;;;;4.45;2.08;;;;;;;24.16;36.57;100634.47;4469221;32;32798;-67
2023/10/05 04:35:23;;;;;;;7.93;2.22;;;;;;;24.18;36.81;100635.06;4469232;32;33867;-64
2023/10/05 04:37:51;;;;;;;8.07;2.10;;;;;;;24.16;36.96;100639.91;4483241;32;33893;-65
2023/10/05 04:40:22;;;;;;;12.65;3.12;;;;;;;24.16;36.95;100639.06;4483349;32;34756;-64
2023/10/05 04:42:51;;;;;;;8.75;2.30;;;;;;;24.15;36.93;100640.09;4483385;32;34040;-64
2023/10/05 04:45:20;;;;;;;5.78;2.10;;;;;;;24.15;36.94;100651.88;4483242;32;34084;-64
2023/10/05 04:47:48;;;;;;;7.75;2.42;;;;;;;24.17;37.02;100651.66;4469250;32;34567;-65
2023/10/05 04:50:17;;;;;;;4.85;2.20;;;;;;;24.16;37.08;100650.81;4483246;32;34746;-64
2023/10/05 04:52:48;;;;;;;11.20;2.45;;;;;;;24.15;37.15;100667.37;4469099;32;34184;-64
2023/10/05 04:55:22;;;;;;;4.68;2.12;;;;;;;24.14;37.18;100655.62;4468752;32;33326;-66
2023/10/05 04:57:55;;;;;;;7.12;2.33;;;;;;;24.15;37.17;100651.00;4457721;32;33777;-67
2023/10/05 05:04:13;;;;;;;4.50;1.95;;;;;;;24.13;37.02;100664.03;4469261;32;33521;-68
2023/10/05 05:06:13;;;;;;;4.85;1.80;;;;;;;24.13;37.09;100664.03;4469634;32;34125;-68
2023/10/05 05:08:40;;;;;;;4.82;1.90;;;;;;;24.12;37.15;100660.47;4483210;32;33468;-68
2023/10/05 05:11:19;;;;;;;4.57;2.25;;;;;;;24.11;37.04;100657.97;4484388;32;34557;-67
2023/10/05 05:13:48;;;;;;;8.93;2.33;;;;;;;24.11;37.14;100666.12;4484478;32;33877;-67
2023/10/05 05:16:16;;;;;;;4.30;1.90;;;;;;;24.11;37.09;100660.69;4485208;32;33021;-68
2023/10/05 05:18:44;;;;;;;4.00;2.08;;;;;;;24.12;37.12;100670.53;4470462;32;34003;-68
2023/10/05 05:21:12;;;;;;;4.50;2.00;;;;;;;24.10;37.22;100672.62;4469772;32;33632;-68
2023/10/05 05:23:40;;;;;;;6.53;2.12;;;;;;;24.11;37.19;100671.59;4484852;32;34371;-69
2023/10/05 05:26:09;;;;;;;4.40;2.20;;;;;;;24.10;37.16;100678.06;4485061;32;34250;-67
2023/10/05 05:28:37;;;;;;;4.95;2.03;;;;;;;24.08;37.18;100661.94;4484943;32;34428;-68
2023/10/05 05:31:07;;;;;;;3.85;1.75;;;;;;;24.09;37.16;100671.78;4470905;32;33855;-67
2023/10/05 05:33:38;;;;;;;4.45;1.80;;;;;;;24.07;37.19;100665.72;4484953;32;33644;-68
2023/10/05 05:36:11;;;;;;;3.87;1.70;;;;;;;24.08;37.18;100677.44;4484860;32;33367;-68
2023/10/05 05:38:39;;;;;;;4.70;1.87;;;;;;;24.09;37.18;100696.31;4483645;32;34607;-67
2023/10/05 05:41:12;;;;;;;3.95;1.90;;;;;;;24.09;37.06;100692.75;4470871;32;34005;-68
2023/10/05 05:43:40;;;;;;;6.00;2.00;;;;;;;24.07;37.22;100690.25;4484419;32;34254;-67
2023/10/05 05:46:14;;;;;;;4.80;1.95;;;;;;;24.07;37.06;100678.50;4484834;32;33756;-68
2023/10/05 05:48:43;;;;;;;4.75;1.95;;;;;;;24.05;37.07;100675.97;4484507;32;33512;-67
2023/10/05 05:51:14;;;;;;;4.50;1.90;;;;;;;24.05;37.11;100678.69;4470845;32;34711;-67
2023/10/05 05:53:48;;;;;;;4.53;1.80;;;;;;;24.05;37.12;100670.50;4484889;32;34570;-67
2023/10/05 05:56:19;;;;;;;3.83;1.90;;;;;;;24.05;37.18;100670.50;4484756;32;33073;-67
2023/10/05 05:58:47;;;;;;;4.47;2.00;;;;;;;24.05;37.13;100681.41;4484841;32;33649;-68
2023/10/05 06:01:14;;;;;;;4.85;1.83;;;;;;;24.05;37.13;100672.41;4484737;32;34836;-67
2023/10/05 06:03:48;;;;;;;4.20;2.30;;;;;;;24.05;37.14;100678.69;4484726;32;33870;-68
2023/10/05 06:06:18;;;;;;;4.37;2.17;;;;;;;24.03;37.18;100669.91;4485111;32;33385;-69
2023/10/05 06:08:47;;;;;;;5.57;1.98;;;;;;;24.04;37.13;100665.28;4470717;32;34191;-70
2023/10/05 06:11:15;;;;;;;4.45;2.10;;;;;;;24.05;37.16;100666.94;4485194;32;33715;-68
2023/10/05 06:13:45;;;;;;;3.85;1.80;;;;;;;24.03;37.11;100678.06;4456433;32;33814;-68
2023/10/05 06:16:15;;;;;;;4.18;1.80;;;;;;;24.03;37.13;100661.72;4467992;32;33704;-68
2023/10/05 06:18:43;;;;;;;4.82;2.08;;;;;;;24.02;37.07;100649.16;4483922;32;34029;-69
2023/10/05 06:21:11;;;;;;;6.95;2.12;;;;;;;24.03;37.05;100655.44;4483390;32;34015;-68
2023/10/05 06:23:39;;;;;;;4.97;2.03;;;;;;;24.02;37.13;100659.22;4483625;32;34942;-68
2023/10/05 06:26:07;;;;;;;6.22;2.05;;;;;;;24.02;37.15;100653.75;4483108;32;33366;-69
2023/10/05 06:28:34;;;;;;;4.43;2.00;;;;;;;24.02;37.11;100656.50;4483884;32;33521;-69
2023/10/05 06:31:03;;;;;;;3.62;2.12;;;;;;;24.01;36.97;100654.78;4484478;32;33699;-69
2023/10/05 06:33:33;;;;;;;5.62;2.03;;;;;;;24.01;36.99;100652.91;4484450;32;34723;-68
2023/10/05 06:36:04;;;;;;;4.80;2.15;;;;;;;24.01;37.11;100655.62;4484608;32;33432;-68
2023/10/05 06:38:32;;;;;;;3.60;1.70;;;;;;;24.01;37.20;100660.25;4484591;32;34603;-68
2023/10/05 06:40:59;;;;;;;6.32;2.67;;;;;;;24.01;37.12;100657.50;4470639;32;34310;-70
2023/10/05 06:43:35;;;;;;;5.18;1.98;;;;;;;24.01;37.18;100658.34;4484525;32;33814;-70
2023/10/05 06:46:17;;;;;;;3.65;1.95;;;;;;;24.01;37.31;100652.91;4470164;32;32137;-67
2023/10/05 06:48:45;;;;;;;3.90;1.95;;;;;;;24.00;37.31;100653.13;4484268;32;34679;-69
2023/10/05 06:51:13;;;;;;;6.40;2.40;;;;;;;24.01;37.21;100655.62;4484692;32;33915;-67
2023/10/05 06:53:40;;;;;;;6.47;2.20;;;;;;;24.00;37.28;100653.94;4457493;32;33988;-67
2023/10/05 06:56:08;;;;;;;4.62;2.10;;;;;;;24.00;37.29;100651.22;4484280;32;34258;-67
2023/10/05 06:58:36;;;;;;;4.30;1.95;;;;;;;24.00;37.31;100658.56;4484294;32;32996;-68
2023/10/05 07:01:03;;;;;;;8.52;2.72;;;;;;;24.00;37.36;100655.84;4470290;32;33033;-68
2023/10/05 07:03:31;;;;;;;4.65;2.00;;;;;;;24.00;37.34;100666.75;4469771;32;33734;-67
2023/10/05 07:06:00;;;;;;;6.03;2.40;;;;;;;23.99;37.43;100660.47;4484304;32;33394;-67
2023/10/05 07:08:28;;;;;;;7.57;2.70;;;;;;;24.00;37.30;100662.12;4484379;32;33596;-67
2023/10/05 07:10:55;;;;;;;5.30;1.92;;;;;;;24.00;37.26;100661.28;4484190;32;33620;-67
2023/10/05 07:13:24;;;;;;;4.40;2.00;;;;;;;23.99;37.29;100655.00;4484378;32;34529;-68
2023/10/05 07:15:52;;;;;;;4.45;1.87;;;;;;;23.99;37.30;100652.28;4470030;32;33509;-68
2023/10/05 07:18:21;;;;;;;4.35;2.00;;;;;;;24.01;37.27;100657.50;4484180;32;33962;-68
2023/10/05 07:20:49;;;;;;;;;;;;;;;23.99;37.32;100656.91;4470181;32;33242;-68
2023/10/05 07:23:17;;;;;;;3.65;2.00;;;;;;;24.08;37.17;100655.62;4484185;32;34669;-68
2023/10/05 07:25:45;;;;;;;5.45;2.47;;;;;;;24.02;37.20;100660.06;4483927;32;32958;-68
2023/10/05 07:28:14;;;;;;;4.47;1.92;;;;;;;24.00;37.28;100655.84;4469390;32;33693;-68
2023/10/05 07:30:43;;;;;;;4.90;2.40;;;;;;;23.99;37.32;100656.91;4484525;32;34004;-68
2023/10/05 07:33:11;;;;;;;4.53;2.30;;;;;;;23.99;37.37;100655.00;4469972;32;33519;-69
2023/10/05 07:35:46;;;;;;;12.20;2.30;;;;;;;24.00;37.38;100656.69;4470489;32;33378;-69
2023/10/05 07:38:14;;;;;;;4.03;2.10;;;;;;;23.99;37.43;100656.91;4470093;32;34715;-69
2023/10/05 07:40:43;;;;;;;6.10;2.08;;;;;;;23.99;37.33;100652.28;4470203;32;34756;-68
2023/10/05 07:43:11;;;;;;;5.68;2.03;;;;;;;24.00;37.13;100653.94;4484098;32;34582;-68
2023/10/05 07:45:39;;;;;;;7.40;2.35;;;;;;;23.99;37.06;100652.28;4483864;32;34266;-68
2023/10/05 07:48:07;;;;;;;6.25;2.17;;;;;;;23.99;37.03;100646.00;4469920;32;34052;-68
2023/10/05 07:50:37;;;;;;;5.18;2.50;;;;;;;23.98;37.01;100656.06;4483907;32;33003;-68
2023/10/05 07:53:04;;;;;;;7.45;2.55;;;;;;;23.98;36.90;100650.59;4484307;32;33816;-69
2023/10/05 07:55:38;;;;;;;5.97;2.05;;;;;;;23.99;36.88;100654.16;4457644;32;33051;-68
2023/10/05 07:58:05;;;;;;;4.75;2.40;;;;;;;23.97;36.88;100661.69;4484142;32;35513;-68
2023/10/05 08:00:34;;;;;;;5.93;2.28;;;;;;;23.97;36.83;100664.44;4469975;32;34719;-69
2023/10/05 08:03:03;;;;;;;6.20;2.67;;;;;;;23.97;36.86;100665.28;4469904;32;33486;-68
2023/10/05 08:05:31;;;;;;;5.90;2.40;;;;;;;23.96;36.69;100657.31;4484018;32;33414;-68
2023/10/05 08:07:59;;;;;;;5.72;2.40;;;;;;;23.97;36.60;100673.47;4469795;32;34547;-68
2023/10/05 08:10:28;;;;;;;6.20;2.78;;;;;;;23.96;36.65;100674.50;4483803;32;34904;-69
2023/10/05 08:12:55;;;;;;;5.75;2.78;;;;;;;23.96;36.45;100674.50;4469630;32;33975;-68
2023/10/05 08:15:23;;;;;;;6.53;2.40;;;;;;;23.95;36.45;100670.09;4483820;32;34080;-69
2023/10/05 08:17:52;;;;;;;4.85;2.17;;;;;;;23.96;36.37;100673.66;4483813;32;33907;-68
2023/10/05 08:20:20;;;;;;;4.72;2.25;;;;;;;23.95;36.42;100661.09;4483574;32;34838;-68
2023/10/05 08:22:56;;;;;;;5.47;2.00;;;;;;;23.96;36.26;100670.94;4483734;32;33788;-68
2023/10/05 08:25:24;;;;;;;;;;;;;;;23.95;36.23;100663.81;4470054;32;33231;-68
2023/10/05 08:27:55;;;;;;;7.40;2.20;;;;;;;24.02;36.08;100660.06;4483727;32;33595;-68
2023/10/05 08:30:26;;;;;;;5.40;2.53;;;;;;;23.95;36.09;100656.47;4483766;32;34710;-68
2023/10/05 08:32:56;;;;;;;5.25;2.15;;;;;;;23.94;36.24;100671.16;4456859;32;33657;-68
2023/10/05 08:35:28;;;;;;;5.80;2.20;;;;;;;23.93;36.23;100669.47;4483622;32;33343;-68
2023/10/05 08:37:58;;;;;;;6.45;2.60;;;;;;;23.92;36.12;100660.47;4469299;32;34801;-68
2023/10/05 08:40:37;;;;;;;5.55;1.80;;;;;;;23.92;36.00;100660.47;4469716;32;34562;-68
2023/10/05 08:43:10;;;;;;;5.53;2.33;;;;;;;23.91;35.97;100655.22;4482295;32;33812;-68
2023/10/05 08:46:01;;;;;;;6.07;2.53;;;;;;;23.92;36.07;100662.31;4457525;32;34043;-68
2023/10/05 08:48:30;;;;;;;5.95;2.60;;;;;;;23.93;36.25;100656.69;4469579;32;33519;-69
2023/10/05 08:51:15;;;;;;;4.72;2.10;;;;;;;23.93;35.84;100658.59;4469293;32;34846;-68
2023/10/05 08:53:48;;;;;;;6.32;2.55;;;;;;;23.92;35.65;100657.75;4482907;31;33803;-69
2023/10/05 08:56:17;;;;;;;4.82;2.20;;;;;;;23.91;35.91;100666.94;4469640;32;32663;-69
2023/10/05 08:58:46;;;;;;;5.15;2.08;;;;;;;23.92;36.15;100665.06;4482167;32;32893;-69
2023/10/05 09:01:24;;;;;;;6.05;2.00;;;;;;;23.92;36.23;100668.66;4474828;32;33983;-69
2023/10/05 09:04:11;;;;;;;6.20;2.42;;;;;;;23.93;36.10;100658.59;4467530;32;33970;-69
2023/10/05 09:06:47;;;;;;;5.37;2.15;;;;;;;23.92;36.00;100654.16;4466666;32;33150;-69
2023/10/05 09:09:18;;;;;;;4.12;1.87;;;;;;;23.93;35.99;100653.97;4451864;32;34746;-68
2023/10/05 09:11:45;;;;;;;;;;;;;;;23.92;35.91;100654.16;4467125;32;34579;-68
2023/10/05 09:14:27;;;;;;;6.00;2.20;;;;;;;24.01;35.67;100643.87;4464187;32;33015;-69
2023/10/05 09:17:07;;;;;;;4.60;2.12;;;;;;;23.94;35.91;100646.63;4456330;32;34054;-68
2023/10/05 09:19:35;;;;;;;5.57;2.45;;;;;;;23.93;36.21;100647.69;4441151;32;33992;-69
2023/10/05 09:22:14;;;;;;;4.82;2.17;;;;;;;23.91;35.62;100636.13;4453322;32;33130;-69
2023/10/05 09:24:59;;;;;;;7.80;2.15;;;;;;;23.90;35.63;100646.19;4467124;32;34396;-68
2023/10/05 09:27:47;;;;;;;4.70;2.37;;;;;;;23.93;35.66;100631.31;4465255;32;33096;-68
2023/10/05 09:30:15;;;;;;;6.35;2.25;;;;;;;23.92;35.83;100637.78;4454116;32;33443;-68
2023/10/05 09:32:42;;;;;;;6.53;2.22;;;;;;;23.92;35.87;100629.63;4470003;32;33883;-68
2023/10/05 09:35:26;;;;;;;5.62;2.40;;;;;;;23.92;35.90;100638.66;4474390;32;33522;-68
2023/10/05 09:37:56;;;;;;;4.55;2.08;;;;;;;23.93;35.83;100634.03;4453398;32;32714;-68
2023/10/05 09:40:27;;;;;;;6.28;2.30;;;;;;;23.92;36.01;100621.44;4452770;32;33620;-68
2023/10/05 09:42:59;;;;;;;4.22;1.95;;;;;;;23.94;35.86;100627.53;4452923;32;33701;-68
2023/10/05 09:45:29;;;;;;;5.80;2.42;;;;;;;23.92;35.74;100630.50;4465651;32;34242;-69
2023/10/05 09:47:58;;;;;;;5.35;2.10;;;;;;;23.92;36.04;100619.59;4465630;32;33589;-68
2023/10/05 09:50:27;;;;;;;5.75;2.45;;;;;;;23.92;35.82;100627.75;4466314;32;34572;-69
2023/10/05 09:52:59;;;;;;;6.53;2.12;;;;;;;23.93;35.82;100623.16;4470496;32;34080;-69
2023/10/05 09:55:29;;;;;;;5.37;2.22;;;;;;;23.93;35.91;100613.06;4471262;32;34829;-69
2023/10/05 09:58:05;;;;;;;5.20;2.53;;;;;;;23.94;35.72;100619.38;4470976;32;33499;-68
2023/10/05 10:03:07;;;;;;;5.05;2.25;;;;;;;23.95;35.62;100621.03;4483733;32;33553;-69
2023/10/05 10:05:42;;;;;;;5.95;2.25;;;;;;;23.94;35.49;100611.19;4483288;32;34630;-69
2023/10/05 10:08:13;;;;;;;5.90;2.10;;;;;;;23.93;35.64;100609.50;4483261;32;32987;-68
2023/10/05 10:10:51;;;;;;;5.20;2.42;;;;;;;23.94;35.57;100605.72;4467378;32;34164;-69
2023/10/05 10:13:22;;;;;;;5.62;2.15;;;;;;;23.96;35.41;100600.06;4461965;32;32530;-69
2023/10/05 10:15:53;;;;;;;5.47;2.40;;;;;;;23.97;35.50;100599.00;4470607;32;34023;-70
2023/10/05 10:18:37;;;;;;;5.72;2.35;;;;;;;23.96;35.61;100598.16;4482197;32;33492;-70
2023/10/05 10:21:12;;;;;;;7.45;2.85;;;;;;;23.96;35.59;100597.34;4482753;32;34301;-70
2023/10/05 10:23:44;;;;;;;7.05;2.10;;;;;;;23.96;35.55;100592.72;4481100;32;33215;-70
2023/10/05 10:26:24;;;;;;;8.38;2.47;;;;;;;23.97;35.49;100577.19;4468878;32;33764;-70
2023/10/05 10:31:42;;;;;;;6.95;2.42;;;;;;;23.98;35.45;100582.47;4482525;32;33841;-70
2023/10/05 10:34:28;;;;;;;5.70;2.53;;;;;;;23.97;35.50;100577.19;4482580;32;33845;-70
2023/10/05 10:36:56;;;;;;;4.72;2.40;;;;;;;23.96;35.65;100576.37;4483325;32;32889;-70
2023/10/05 10:39:27;;;;;;;4.93;2.20;;;;;;;23.98;35.45;100576.19;4483260;32;33341;-70
2023/10/05 10:42:05;;;;;;;6.68;2.70;;;;;;;23.96;35.46;100568.19;4470687;32;34694;-70
2023/10/05 10:47:19;;;;;;;6.18;2.25;;;;;;;23.99;35.49;100558.75;4484290;32;34654;-70
2023/10/05 10:50:00;;;;;;;5.40;2.40;;;;;;;23.98;35.38;100554.38;4484208;32;34399;-70
2023/10/05 10:52:29;;;;;;;5.10;2.00;;;;;;;24.00;35.40;100553.09;4484752;32;34010;-69
2023/10/05 10:55:00;;;;;;;4.55;2.20;;;;;;;23.97;35.45;100542.63;4483189;32;34004;-70
2023/10/05 10:57:32;;;;;;;4.55;2.00;;;;;;;23.98;35.39;100541.56;4483255;32;34386;-70
2023/10/05 11:02:47;;;;;;;4.90;2.20;;;;;;;23.97;35.40;100534.44;4471111;32;33603;-70
2023/10/05 11:05:16;;;;;;;8.65;2.03;;;;;;;23.98;35.35;100538.84;4483233;32;34094;-70
2023/10/05 11:07:49;;;;;;;5.60;1.90;;;;;;;23.98;35.35;100533.41;4470562;32;33800;-70
2023/10/05 11:10:20;;;;;;;7.53;2.22;;;;;;;23.98;35.11;100533.41;4483250;32;33369;-70
2023/10/05 11:12:57;;;;;;;5.40;1.65;;;;;;;23.99;34.81;100515.97;4470517;32;33630;-70
2023/10/05 11:15:30;;;;;;;4.28;2.28;;;;;;;23.99;34.39;100517.88;4483156;32;34006;-70
2023/10/05 11:17:59;;;;;;;4.80;1.87;;;;;;;23.98;34.70;100511.59;4484436;32;33845;-70
2023/10/05 11:20:33;;;;;;;5.10;2.25;;;;;;;23.98;35.00;100499.84;4482919;32;34188;-70
2023/10/05 11:23:04;;;;;;;6.87;1.95;;;;;;;23.99;35.12;100510.53;4483141;32;33197;-69
2023/10/05 11:25:32;;;;;;;4.05;1.95;;;;;;;23.99;35.26;100504.25;4484074;32;34692;-70
2023/10/05 11:28:00;;;;;;;5.22;1.85;;;;;;;23.98;34.97;100492.50;4484361;32;34554;-70
2023/10/05 11:30:41;;;;;;;4.55;2.25;;;;;;;23.98;34.87;100500.69;4457175;32;32010;-70
2023/10/05 11:33:33;;;;;;;4.80;1.90;;;;;;;23.98;35.08;100492.50;4474120;32;34382;-70
2023/10/05 11:36:22;;;;;;;4.72;2.00;;;;;;;23.99;34.98;100482.44;4461926;32;33937;-70
2023/10/05 11:38:57;;;;;;;5.00;1.85;;;;;;;23.99;34.97;100480.53;4470174;32;33333;-70
2023/10/05 11:41:28;;;;;;;4.95;2.15;;;;;;;23.99;34.95;100477.81;4483938;32;33342;-70
2023/10/05 11:43:58;;;;;;;3.92;1.80;;;;;;;23.99;34.77;100480.53;4482896;32;34778;-69
2023/10/05 11:46:42;;;;;;;4.87;2.15;;;;;;;24.00;34.59;100473.19;4484135;32;33852;-70
2023/10/05 11:49:10;;;;;;;4.87;2.25;;;;;;;24.03;34.40;100475.50;4469714;32;33841;-70
2023/10/05 11:51:41;;;;;;;5.15;2.03;;;;;;;24.00;34.28;100467.75;4482888;32;33444;-68
2023/10/05 11:54:09;;;;;;;4.30;1.90;;;;;;;24.00;34.15;100468.59;4483990;32;34610;-70
2023/10/05 11:56:40;;;;;;;6.25;1.90;;;;;;;24.00;34.28;100459.56;4469883;32;33875;-70
2023/10/05 11:59:11;;;;;;;7.18;1.90;;;;;;;24.00;34.12;100454.97;4482636;32;33887;-70
2023/10/05 12:01:40;;;;;;;4.55;1.90;;;;;;;24.01;34.40;100453.91;4482870;32;33865;-70
2023/10/05 12:04:09;;;;;;;4.20;2.12;;;;;;;24.02;34.31;100454.75;4482668;32;32925;-70
2023/10/05 12:06:38;;;;;;;3.17;1.60;;;;;;;24.02;33.93;100457.50;4469718;32;34866;-70
2023/10/05 12:09:09;;;;;;;5.43;2.03;;;;;;;24.01;34.01;100453.91;4482899;32;33841;-70
2023/10/05 12:11:38;;;;;;;5.43;1.77;;;;;;;24.02;34.30;100458.31;4482808;32;34086;-70